Time;durP1;ratioP1;P1;durP2;ratioP2;P2;SDS_P1;SDS_P2;PMS_P1;PMS_P2;Temp;Humidity;BMP_temperature;BMP_pressure;BME280_temperature;BME280_humidity;BME280_pressure;Samples;Min_cycle;Max_cycle;Signal;HPM_P1;HPM_P2
2023/03/17 00:01:16;;;;;;;9.77;6.10;;;6.20;75.70;;;;;;5049699;28;20434;-73
2023/03/17 00:03:45;;;;;;;8.43;6.00;;;6.20;75.70;;;;;;5050875;28;20427;-73
2023/03/17 00:06:27;;;;;;;10.70;5.90;;;6.20;75.70;;;;;;5050469;28;20433;-72
2023/03/17 00:08:53;;;;;;;9.53;6.03;;;6.30;75.90;;;;;;5052439;28;20414;-72
2023/03/17 00:11:20;;;;;;;11.47;5.70;;;6.30;75.70;;;;;;5046213;28;20930;-74
2023/03/17 00:13:46;;;;;;;9.57;6.50;;;6.30;75.50;;;;;;5050770;28;20231;-74
2023/03/17 00:16:19;;;;;;;11.97;6.83;;;6.20;75.70;;;;;;5049264;28;20419;-73
2023/03/17 00:18:46;;;;;;;11.87;6.40;;;6.30;75.70;;;;;;5050117;28;21068;-74
2023/03/17 00:21:13;;;;;;;9.13;5.87;;;6.30;75.70;;;;;;5047344;28;20455;-74
2023/03/17 00:23:39;;;;;;;9.90;5.97;;;6.20;75.50;;;;;;5049262;28;20446;-74
2023/03/17 00:26:06;;;;;;;11.60;6.17;;;6.30;75.70;;;;;;5030480;28;20434;-74
2023/03/17 00:28:32;;;;;;;10.20;5.90;;;6.30;75.40;;;;;;5046306;28;20434;-75
2023/03/17 00:31:00;;;;;;;11.13;6.77;;;6.30;75.50;;;;;;5048754;28;20553;-74
2023/03/17 00:33:28;;;;;;;9.40;5.97;;;6.40;75.20;;;;;;5044892;28;20482;-75
2023/03/17 00:35:55;;;;;;;14.33;5.80;;;6.40;75.20;;;;;;5029391;28;20493;-73
2023/03/17 00:38:23;;;;;;;9.87;6.00;;;6.40;75.20;;;;;;5041799;28;20500;-75
2023/03/17 00:40:49;;;;;;;10.20;6.30;;;6.50;75.20;;;;;;5044638;28;20531;-75
2023/03/17 00:43:16;;;;;;;12.57;5.60;;;6.40;75.20;;;;;;5052484;28;20437;-74
2023/03/17 00:45:42;;;;;;;7.40;5.03;;;6.50;75.40;;;;;;5045131;28;20420;-75
2023/03/17 00:48:18;;;;;;;13.37;6.87;;;6.50;75.20;;;;;;5048968;28;20439;-73
2023/03/17 00:50:45;;;;;;;11.30;6.40;;;6.50;74.80;;;;;;5051089;28;20458;-73
2023/03/17 00:53:19;;;;;;;13.80;6.07;;;6.50;75.10;;;;;;5053639;28;20470;-74
2023/03/17 00:55:45;;;;;;;14.30;8.40;;;6.50;75.10;;;;;;5054429;28;20418;-75
2023/03/17 00:58:27;;;;;;;13.00;6.33;;;6.50;75.10;;;;;;5051702;28;20935;-75
2023/03/17 01:00:53;;;;;;;9.77;6.37;;;6.60;74.80;;;;;;5024714;28;20455;-76
2023/03/17 01:03:20;;;;;;;12.10;6.27;;;6.60;74.60;;;;;;5050387;28;20458;-75
2023/03/17 01:05:47;;;;;;;15.83;7.40;;;6.60;74.60;;;;;;5050527;28;20481;-75
2023/03/17 01:08:12;;;;;;;12.63;6.33;;;6.50;74.80;;;;;;5029289;28;21045;-75
2023/03/17 01:10:38;;;;;;;10.50;6.67;;;6.50;75.10;;;;;;5047529;28;20539;-76
2023/03/17 01:13:05;;;;;;;11.87;6.47;;;6.50;74.80;;;;;;5048697;28;20685;-73
2023/03/17 01:15:32;;;;;;;11.60;6.23;;;6.50;74.60;;;;;;5048927;28;20187;-75
2023/03/17 01:18:01;;;;;;;9.30;6.10;;;6.50;74.80;;;;;;5044790;28;20494;-74
2023/03/17 01:20:31;;;;;;;12.27;6.30;;;6.60;75.10;;;;;;5032212;28;20466;-76
2023/03/17 01:22:57;;;;;;;9.97;5.97;;;6.60;74.80;;;;;;5048387;28;20420;-74
2023/03/17 01:25:23;;;;;;;15.77;6.63;;;6.70;74.90;;;;;;5048297;28;20434;-74
2023/03/17 01:27:49;;;;;;;11.20;6.63;;;6.70;74.80;;;;;;5045706;28;20486;-74
2023/03/17 01:30:39;;;;;;;12.30;5.87;;;6.60;74.80;;;;;;5045064;28;20466;-75
2023/03/17 01:33:07;;;;;;;12.10;6.50;;;6.60;75.10;;;;;;5043392;28;20558;-76
2023/03/17 01:35:34;;;;;;;10.63;6.67;;;6.60;75.10;;;;;;5040098;28;20515;-75
2023/03/17 01:38:00;;;;;;;11.23;6.80;;;6.60;75.10;;;;;;5041090;28;20434;-74
2023/03/17 01:40:32;;;;;;;9.03;5.37;;;6.60;75.10;;;;;;5044397;28;20804;-76
2023/03/17 01:43:20;;;;;;;10.90;6.20;;;6.50;75.20;;;;;;5047060;28;20430;-75
2023/03/17 01:46:26;;;;;;;9.67;5.70;;;6.60;75.40;;;;;;5049754;28;20429;-75
2023/03/17 01:49:22;;;;;;;10.50;5.70;;;6.60;75.40;;;;;;5035900;28;20480;-76
2023/03/17 01:52:08;;;;;;;7.77;4.87;;;6.60;75.70;;;;;;5031749;28;20427;-75
2023/03/17 01:54:44;;;;;;;13.13;5.90;;;6.60;75.70;;;;;;5045761;28;20466;-73
2023/03/17 01:57:25;;;;;;;10.70;5.97;;;6.60;75.70;;;;;;5048499;28;20931;-76
2023/03/17 02:00:02;;;;;;;11.30;6.17;;;6.60;75.50;;;;;;5047292;28;20545;-76
2023/03/17 02:02:32;;;;;;;12.60;6.63;;;6.70;75.10;;;;;;5031065;28;20425;-76
2023/03/17 02:04:58;;;;;;;11.07;6.27;;;6.60;75.20;;;;;;5049052;28;20510;-75
2023/03/17 02:07:26;;;;;;;11.50;6.20;;;6.60;75.40;;;;;;5047703;28;20415;-74
2023/03/17 02:09:53;;;;;;;13.10;6.47;;;6.70;75.10;;;;;;5046427;28;20965;-76
2023/03/17 02:12:21;;;;;;;13.40;6.57;;;6.60;74.90;;;;;;5046817;28;20411;-75
2023/03/17 02:14:46;;;;;;;9.63;5.73;;;6.70;74.90;;;;;;5031551;28;20544;-75
2023/03/17 02:17:13;;;;;;;9.93;6.17;;;6.70;74.80;;;;;;5049327;28;20898;-75
2023/03/17 02:19:39;;;;;;;11.67;6.20;;;6.80;74.50;;;;;;5041996;28;20739;-73
2023/03/17 02:22:04;;;;;;;12.50;5.90;;;6.70;74.60;;;;;;5050482;28;20422;-74
2023/03/17 02:24:52;;;;;;;9.73;6.20;;;6.70;74.50;;;;;;5044601;28;20264;-73
2023/03/17 02:27:23;;;;;;;10.83;5.40;;;6.70;74.60;;;;;;5049804;28;20184;-74
2023/03/17 02:29:49;;;;;;;11.30;6.57;;;6.70;74.80;;;;;;5038457;28;20463;-74
2023/03/17 02:32:17;;;;;;;10.50;6.13;;;6.60;74.80;;;;;;5046626;28;20717;-74
2023/03/17 02:34:44;;;;;;;11.57;6.37;;;6.60;75.20;;;;;;5045537;28;20477;-74
2023/03/17 02:37:09;;;;;;;11.90;6.53;;;6.50;75.10;;;;;;5051387;28;20427;-73
2023/03/17 02:39:36;;;;;;;10.30;5.67;;;6.50;74.60;;;;;;5045677;28;20471;-73
2023/03/17 02:42:02;;;;;;;8.70;5.40;;;6.60;74.50;;;;;;5051698;28;20423;-75
2023/03/17 02:44:27;;;;;;;11.33;5.90;;;6.60;74.60;;;;;;5032003;28;20972;-73
2023/03/17 02:46:53;;;;;;;11.80;6.43;;;6.50;75.10;;;;;;5049765;28;20418;-73
2023/03/17 02:49:19;;;;;;;8.90;6.33;;;6.60;75.50;;;;;;5046231;28;20227;-74
2023/03/17 02:51:44;;;;;;;13.70;6.53;;;6.60;75.40;;;;;;5046926;28;20181;-75
2023/03/17 02:54:10;;;;;;;11.80;5.70;;;6.60;75.40;;;;;;5046733;28;20539;-72
2023/03/17 02:56:36;;;;;;;11.83;6.40;;;6.60;75.40;;;;;;5048337;28;20176;-73
2023/03/17 02:59:02;;;;;;;9.50;5.93;;;6.70;75.10;;;;;;5044563;28;20414;-72
2023/03/17 03:01:29;;;;;;;14.20;7.30;;;6.70;74.80;;;;;;5046159;28;20185;-73
2023/03/17 03:03:55;;;;;;;10.30;5.40;;;6.70;74.60;;;;;;5047456;28;20199;-73
2023/03/17 03:06:22;;;;;;;9.43;6.03;;;6.70;74.60;;;;;;5049762;28;20998;-73
2023/03/17 03:08:48;;;;;;;11.80;6.20;;;6.70;74.00;;;;;;5053833;28;20455;-74
2023/03/17 03:11:14;;;;;;;8.60;6.60;;;6.70;74.20;;;;;;5042881;28;20567;-74
2023/03/17 03:13:40;;;;;;;10.80;5.97;;;6.70;74.30;;;;;;5056039;28;20465;-73
2023/03/17 03:16:06;;;;;;;9.30;5.57;;;6.50;74.60;;;;;;5055476;28;20236;-73
2023/03/17 03:18:31;;;;;;;9.60;6.20;;;6.40;75.10;;;;;;5051253;28;20424;-73
2023/03/17 03:20:57;;;;;;;10.17;5.93;;;6.40;75.20;;;;;;5043865;28;20587;-73
2023/03/17 03:23:23;;;;;;;10.37;5.70;;;6.30;75.40;;;;;;5055684;28;20246;-73
2023/03/17 03:25:48;;;;;;;9.30;6.07;;;6.30;75.50;;;;;;5054449;28;20948;-73
2023/03/17 03:28:14;;;;;;;7.67;5.23;;;6.30;75.40;;;;;;5053848;28;20192;-72
2023/03/17 03:30:40;;;;;;;10.70;5.47;;;6.20;75.40;;;;;;5046356;28;20896;-73
2023/03/17 03:33:06;;;;;;;13.80;6.70;;;6.20;75.70;;;;;;5054107;28;20639;-73
2023/03/17 03:35:33;;;;;;;12.50;6.40;;;6.20;75.70;;;;;;5036162;28;20445;-73
2023/03/17 03:37:59;;;;;;;11.63;6.00;;;6.10;75.70;;;;;;5050862;28;20466;-73
2023/03/17 03:40:25;;;;;;;9.83;5.83;;;6.10;75.80;;;;;;5044684;28;20512;-73
2023/03/17 03:42:51;;;;;;;9.10;5.23;;;6.10;75.80;;;;;;5054036;28;20505;-72
2023/03/17 03:45:17;;;;;;;10.20;5.67;;;6.10;75.90;;;;;;5053154;28;20430;-72
2023/03/17 03:47:43;;;;;;;8.20;5.10;;;6.00;76.10;;;;;;5051160;28;20191;-73
2023/03/17 03:50:09;;;;;;;11.60;6.07;;;6.00;76.10;;;;;;5043262;28;20462;-72
2023/03/17 03:52:35;;;;;;;9.10;5.33;;;6.00;76.10;;;;;;5034182;28;20303;-72
2023/03/17 03:55:01;;;;;;;9.90;5.90;;;6.00;75.90;;;;;;5050237;28;20426;-72
2023/03/17 03:57:27;;;;;;;9.63;5.50;;;5.90;76.10;;;;;;5050108;28;20427;-73
2023/03/17 03:59:52;;;;;;;8.37;5.47;;;5.90;75.80;;;;;;5048656;28;20301;-73
2023/03/17 04:02:18;;;;;;;9.10;6.13;;;5.80;75.90;;;;;;5053629;28;20272;-73
2023/03/17 04:04:44;;;;;;;9.67;5.33;;;5.80;76.20;;;;;;5031181;28;20216;-74
2023/03/17 04:07:10;;;;;;;8.13;5.53;;;5.80;76.40;;;;;;5046051;28;20186;-73
2023/03/17 04:09:36;;;;;;;9.90;5.90;;;5.80;76.20;;;;;;5052969;28;20216;-73
2023/03/17 04:12:02;;;;;;;9.40;6.20;;;5.80;75.90;;;;;;5055332;28;20921;-74
2023/03/17 04:14:28;;;;;;;10.60;5.80;;;5.70;75.90;;;;;;5036149;28;20238;-72
2023/03/17 04:16:54;;;;;;;10.20;5.43;;;5.70;76.20;;;;;;5054523;28;20929;-73
2023/03/17 04:19:23;;;;;;;11.10;5.53;;;5.70;76.20;;;;;;5050291;28;20305;-73
2023/03/17 04:21:49;;;;;;;8.50;5.40;;;5.60;76.20;;;;;;5037174;28;21071;-71
2023/03/17 04:24:14;;;;;;;10.10;6.13;;;5.60;76.40;;;;;;5053336;28;20434;-73
2023/03/17 04:26:41;;;;;;;10.20;5.60;;;5.50;76.50;;;;;;5064718;28;20188;-72
2023/03/17 04:29:07;;;;;;;9.83;5.30;;;5.50;76.80;;;;;;5044193;28;20189;-72
2023/03/17 04:31:34;;;;;;;10.43;5.70;;;5.50;76.80;;;;;;5062306;28;20427;-71
2023/03/17 04:33:59;;;;;;;14.30;6.73;;;5.50;76.80;;;;;;5059310;28;20471;-72
2023/03/17 04:36:25;;;;;;;9.23;6.03;;;5.40;76.80;;;;;;5041156;28;20443;-72
2023/03/17 04:38:51;;;;;;;9.83;6.40;;;5.40;76.80;;;;;;5061158;28;20195;-74
2023/03/17 04:41:17;;;;;;;10.73;5.90;;;5.40;76.50;;;;;;5053797;28;20466;-72
2023/03/17 04:43:43;;;;;;;8.87;5.50;;;5.30;76.70;;;;;;5059146;28;20195;-73
2023/03/17 04:46:08;;;;;;;9.40;5.43;;;5.30;76.50;;;;;;5032643;28;20303;-74
2023/03/17 04:48:34;;;;;;;10.23;5.57;;;5.30;76.80;;;;;;5055699;28;20246;-72
2023/03/17 04:51:00;;;;;;;9.47;5.80;;;5.30;76.80;;;;;;5043533;28;20254;-73
2023/03/17 04:53:26;;;;;;;9.33;5.93;;;5.30;76.80;;;;;;5055814;28;20479;-74
2023/03/17 04:55:52;;;;;;;11.93;6.23;;;5.20;77.00;;;;;;5054282;28;20921;-71
2023/03/17 04:58:17;;;;;;;10.00;6.27;;;5.20;77.10;;;;;;5032297;28;20188;-74
2023/03/17 05:00:43;;;;;;;12.17;6.23;;;5.20;77.10;;;;;;5028401;28;20208;-73
2023/03/17 05:03:08;;;;;;;13.10;6.50;;;5.20;77.10;;;;;;5053687;28;20189;-73
2023/03/17 05:05:35;;;;;;;10.87;6.10;;;5.20;77.30;;;;;;5047429;28;20200;-73
2023/03/17 05:08:01;;;;;;;13.57;6.63;;;5.20;77.40;;;;;;5052154;28;20184;-73
2023/03/17 05:10:26;;;;;;;8.93;5.60;;;5.10;77.60;;;;;;5045656;28;20458;-72
2023/03/17 05:12:52;;;;;;;11.70;6.10;;;5.10;77.80;;;;;;5051002;28;20478;-72
2023/03/17 05:15:17;;;;;;;10.07;5.80;;;5.00;78.10;;;;;;5052058;28;20192;-73
2023/03/17 05:17:43;;;;;;;11.63;6.40;;;5.00;78.00;;;;;;5052180;28;20181;-71
2023/03/17 05:20:09;;;;;;;7.83;5.17;;;5.00;78.10;;;;;;5045207;28;20298;-72
2023/03/17 05:22:36;;;;;;;11.07;5.47;;;4.90;78.30;;;;;;5052602;28;20184;-72
2023/03/17 05:25:03;;;;;;;8.13;5.57;;;4.80;78.60;;;;;;5046849;28;20434;-71
2023/03/17 05:27:29;;;;;;;13.47;5.90;;;4.80;79.00;;;;;;5052225;28;20426;-72
2023/03/17 05:29:55;;;;;;;11.03;5.03;;;4.80;79.20;;;;;;5044946;28;20513;-71
2023/03/17 05:32:20;;;;;;;9.87;6.13;;;4.70;79.00;;;;;;5048211;28;20479;-73
2023/03/17 05:34:46;;;;;;;12.97;6.10;;;4.60;79.00;;;;;;5048280;28;20931;-72
2023/03/17 05:37:12;;;;;;;10.87;5.83;;;4.60;79.50;;;;;;5043699;28;20184;-73
2023/03/17 05:39:39;;;;;;;10.10;5.53;;;4.60;79.60;;;;;;5042028;28;20476;-73
2023/03/17 05:42:05;;;;;;;9.30;6.00;;;4.70;79.60;;;;;;5029855;28;20817;-72
2023/03/17 05:44:30;;;;;;;11.23;6.00;;;4.70;79.60;;;;;;5032425;28;20431;-71
2023/03/17 05:46:58;;;;;;;11.40;5.67;;;4.70;79.60;;;;;;5032561;28;20427;-73
2023/03/17 05:49:24;;;;;;;12.33;6.50;;;4.70;79.60;;;;;;5046403;28;20646;-73
2023/03/17 05:51:50;;;;;;;8.70;5.33;;;4.70;79.50;;;;;;5050984;28;20493;-72
2023/03/17 05:54:16;;;;;;;11.93;6.07;;;4.80;79.30;;;;;;5052523;28;20462;-73
2023/03/17 05:56:41;;;;;;;10.00;5.50;;;4.70;79.00;;;;;;5047136;28;20251;-73
2023/03/17 05:59:09;;;;;;;13.57;6.07;;;4.70;78.90;;;;;;5043754;28;20197;-72
2023/03/17 06:01:35;;;;;;;9.90;6.07;;;4.70;79.00;;;;;;5037159;28;20176;-72
2023/03/17 06:04:02;;;;;;;10.47;5.50;;;4.80;79.00;;;;;;5049522;28;20435;-72
2023/03/17 06:06:27;;;;;;;12.60;5.87;;;4.70;79.00;;;;;;5051654;28;20505;-72
2023/03/17 06:08:54;;;;;;;10.20;5.50;;;4.80;79.00;;;;;;5050928;28;21111;-72
2023/03/17 06:11:20;;;;;;;8.17;5.27;;;4.80;79.00;;;;;;5043255;28;20253;-73
2023/03/17 06:13:46;;;;;;;13.90;6.30;;;4.90;78.90;;;;;;5047919;28;20483;-73
2023/03/17 06:16:12;;;;;;;12.50;5.80;;;4.90;78.90;;;;;;5030806;28;20515;-73
2023/03/17 06:18:38;;;;;;;11.57;6.53;;;4.90;78.90;;;;;;5043414;28;20443;-74
2023/03/17 06:21:03;;;;;;;11.23;5.80;;;5.00;78.70;;;;;;5043251;28;20850;-73
2023/03/17 06:23:29;;;;;;;10.33;5.70;;;5.00;78.40;;;;;;5048307;28;20210;-74
2023/03/17 06:25:55;;;;;;;8.57;5.33;;;5.10;78.40;;;;;;5028672;28;20190;-73
2023/03/17 06:28:20;;;;;;;10.10;5.60;;;5.10;78.10;;;;;;5047037;28;20423;-73
2023/03/17 06:30:46;;;;;;;10.20;5.80;;;5.20;78.10;;;;;;5038389;28;20209;-75
2023/03/17 06:33:12;;;;;;;7.83;5.30;;;5.20;77.70;;;;;;5027007;28;20222;-74
2023/03/17 06:35:37;;;;;;;8.80;4.90;;;5.20;77.70;;;;;;5028452;28;20245;-71
2023/03/17 06:38:04;;;;;;;10.03;5.07;;;5.30;77.80;;;;;;5045217;28;20188;-72
2023/03/17 06:40:30;;;;;;;8.13;4.50;;;5.40;77.60;;;;;;5028182;28;20231;-73
2023/03/17 06:42:57;;;;;;;8.03;5.13;;;5.40;77.60;;;;;;5044854;28;20513;-73
2023/03/17 06:45:22;;;;;;;9.17;4.70;;;5.50;77.30;;;;;;5048521;28;20940;-73
2023/03/17 06:47:48;;;;;;;7.60;4.60;;;5.50;77.40;;;;;;5042843;28;20428;-73
2023/03/17 06:50:14;;;;;;;14.73;6.13;;;5.60;77.10;;;;;;5044794;28;20287;-73
2023/03/17 06:52:40;;;;;;;10.30;4.87;;;5.70;76.50;;;;;;5041838;28;20197;-73
2023/03/17 06:55:07;;;;;;;6.97;5.30;;;5.70;76.50;;;;;;5030224;28;20187;-73
2023/03/17 06:57:33;;;;;;;9.10;5.43;;;5.80;76.20;;;;;;5040333;28;20486;-73
2023/03/17 06:59:59;;;;;;;10.30;5.73;;;5.90;76.20;;;;;;5043404;28;20493;-74
2023/03/17 07:02:26;;;;;;;9.50;5.47;;;6.00;75.90;;;;;;5050506;28;20448;-73
2023/03/17 07:04:52;;;;;;;13.37;6.40;;;6.10;75.70;;;;;;5052534;28;20192;-72
2023/03/17 07:07:19;;;;;;;13.23;5.70;;;6.20;75.40;;;;;;5028176;28;20831;-72
2023/03/17 07:09:45;;;;;;;12.90;5.80;;;6.40;75.10;;;;;;5042909;28;20469;-72
2023/03/17 07:12:11;;;;;;;9.50;5.60;;;6.50;74.60;;;;;;5043369;28;20902;-73
2023/03/17 07:14:36;;;;;;;13.00;6.30;;;6.70;74.20;;;;;;5049862;28;20502;-73
2023/03/17 07:17:03;;;;;;;21.83;7.77;;;6.80;73.90;;;;;;5048075;28;20247;-73
2023/03/17 07:19:30;;;;;;;12.13;6.70;;;6.90;73.70;;;;;;5028674;28;20756;-73
2023/03/17 07:21:55;;;;;;;22.77;8.13;;;7.00;73.70;;;;;;5049204;28;20423;-74
2023/03/17 07:24:22;;;;;;;19.40;8.23;;;7.10;73.60;;;;;;5050327;28;20425;-73
2023/03/17 07:26:48;;;;;;;14.63;7.20;;;7.30;73.50;;;;;;5047514;28;20193;-74
2023/03/17 07:29:14;;;;;;;15.60;8.00;;;7.40;73.20;;;;;;5048104;28;20469;-73
2023/03/17 07:31:39;;;;;;;11.50;7.37;;;7.50;72.90;;;;;;5048229;28;20196;-73
2023/03/17 07:34:05;;;;;;;16.17;9.40;;;7.70;72.70;;;;;;5034814;28;20549;-71
2023/03/17 07:36:32;;;;;;;17.07;8.33;;;7.80;72.30;;;;;;5052550;28;20180;-72
2023/03/17 07:38:58;;;;;;;13.77;7.63;;;7.80;72.30;;;;;;5045976;28;20196;-73
2023/03/17 07:41:23;;;;;;;17.10;8.40;;;7.90;72.30;;;;;;5046901;28;20437;-75
2023/03/17 07:43:49;;;;;;;12.70;8.60;;;8.00;71.80;;;;;;5047753;28;20228;-73
2023/03/17 07:46:15;;;;;;;17.93;8.67;;;8.10;71.40;;;;;;5046859;28;20208;-73
2023/03/17 07:48:42;;;;;;;16.53;8.67;;;8.10;71.10;;;;;;5043356;28;20200;-73
2023/03/17 07:51:21;;;;;;;14.93;8.20;;;8.20;70.80;;;;;;5041969;28;20330;-72
2023/03/17 07:53:48;;;;;;;15.10;7.73;;;8.20;71.00;;;;;;5040737;28;21320;-74
2023/03/17 07:56:14;;;;;;;15.13;8.33;;;8.20;71.00;;;;;;5048964;28;20442;-76
2023/03/17 07:58:40;;;;;;;13.70;8.20;;;8.30;70.80;;;;;;5044182;28;20428;-75
2023/03/17 08:01:07;;;;;;;17.60;8.80;;;8.40;70.50;;;;;;5040887;28;20477;-75
2023/03/17 08:03:33;;;;;;;14.67;7.80;;;8.40;70.80;;;;;;5047023;28;20182;-75
2023/03/17 08:05:59;;;;;;;16.73;9.37;;;8.40;70.20;;;;;;5051050;28;20429;-78
2023/03/17 08:08:27;;;;;;;17.63;8.00;;;8.50;69.40;;;;;;5053561;28;20204;-76
2023/03/17 08:11:00;;;;;;;14.80;7.97;;;8.50;69.50;;;;;;5050157;28;20473;-75
2023/03/17 08:13:26;;;;;;;12.47;7.33;;;8.60;69.10;;;;;;5033699;28;20474;-75
2023/03/17 08:15:52;;;;;;;13.47;7.47;;;8.60;69.10;;;;;;5049363;28;20983;-76
2023/03/17 08:18:17;;;;;;;16.17;7.90;;;8.70;68.90;;;;;;5028614;28;20713;-74
2023/03/17 08:20:43;;;;;;;16.00;8.40;;;8.90;68.60;;;;;;5050581;28;20299;-75
2023/03/17 08:23:09;;;;;;;16.07;8.70;;;9.00;68.20;;;;;;5051230;28;20654;-75
2023/03/17 08:25:35;;;;;;;12.43;7.00;;;9.20;67.90;;;;;;5051555;28;20214;-75
2023/03/17 08:28:02;;;;;;;15.70;7.90;;;9.40;67.50;;;;;;5049278;28;20191;-74
2023/03/17 08:30:27;;;;;;;15.10;8.13;;;9.50;67.30;;;;;;5049879;28;20527;-75
2023/03/17 08:32:53;;;;;;;20.17;7.67;;;9.60;66.90;;;;;;5048313;28;20552;-76
2023/03/17 08:35:19;;;;;;;14.93;7.63;;;9.70;66.60;;;;;;5052581;28;20206;-75
2023/03/17 08:37:46;;;;;;;9.43;6.03;;;9.80;65.60;;;;;;5033386;28;20181;-75
2023/03/17 08:40:15;;;;;;;13.20;6.73;;;9.90;65.00;;;;;;5049035;28;20980;-76
2023/03/17 08:42:42;;;;;;;13.60;6.77;;;10.00;64.50;;;;;;5035575;28;20457;-74
2023/03/17 08:45:09;;;;;;;10.80;6.87;;;10.10;64.10;;;;;;5040870;28;20435;-74
2023/03/17 08:47:37;;;;;;;12.47;6.40;;;10.20;63.80;;;;;;5054270;28;20514;-74
2023/03/17 08:50:04;;;;;;;14.47;6.80;;;10.30;63.40;;;;;;5028434;28;20467;-75
2023/03/17 08:52:30;;;;;;;13.83;7.30;;;10.40;62.30;;;;;;5031323;28;20439;-75
2023/03/17 08:54:56;;;;;;;15.53;7.20;;;10.50;62.30;;;;;;5053679;28;20485;-74
2023/03/17 08:57:22;;;;;;;9.87;6.57;;;10.60;62.50;;;;;;5042659;28;20427;-76
2023/03/17 08:59:47;;;;;;;12.43;7.30;;;10.70;62.50;;;;;;5029654;28;21009;-77
2023/03/17 09:02:14;;;;;;;21.30;8.10;;;10.80;62.60;;;;;;5055871;28;20846;-75
2023/03/17 09:04:40;;;;;;;11.17;7.40;;;11.00;62.50;;;;;;5050146;28;20185;-77
2023/03/17 09:07:06;;;;;;;10.77;6.53;;;11.10;62.50;;;;;;5051854;28;20427;-74
2023/03/17 09:09:35;;;;;;;13.00;6.83;;;11.30;62.20;;;;;;5048515;28;20220;-74
2023/03/17 09:12:03;;;;;;;13.70;7.93;;;11.40;61.30;;;;;;5050568;28;20810;-75
2023/03/17 09:14:28;;;;;;;14.07;8.47;;;11.50;60.70;;;;;;5045144;28;20467;-72
2023/03/17 09:16:55;;;;;;;12.60;6.80;;;11.60;60.90;;;;;;5051254;28;20435;-75
2023/03/17 09:19:22;;;;;;;13.83;6.60;;;11.80;59.60;;;;;;5040451;28;20328;-74
2023/03/17 09:21:49;;;;;;;11.10;5.77;;;12.00;58.90;;;;;;5046509;28;20996;-73
2023/03/17 09:24:15;;;;;;;13.30;6.47;;;12.20;57.70;;;;;;5046313;28;20426;-74
2023/03/17 09:26:40;;;;;;;10.97;6.87;;;12.50;56.90;;;;;;5044932;28;20430;-74
2023/03/17 09:29:06;;;;;;;12.47;6.47;;;12.60;56.20;;;;;;5050883;28;20525;-73
2023/03/17 09:31:32;;;;;;;16.07;5.73;;;12.70;56.20;;;;;;5056134;28;20184;-73
2023/03/17 09:33:58;;;;;;;13.50;7.00;;;12.90;55.40;;;;;;5051131;28;20494;-74
2023/03/17 09:36:24;;;;;;;16.63;6.70;;;13.10;55.00;;;;;;5060149;28;20922;-73
2023/03/17 09:38:51;;;;;;;15.40;7.80;;;13.10;55.70;;;;;;5032096;28;20438;-74
2023/03/17 09:41:47;;;;;;;15.43;6.83;;;13.10;56.00;;;;;;5046779;28;20586;-74
2023/03/17 09:44:46;;;;;;;13.77;6.00;;;13.10;55.80;;;;;;5025541;28;20482;-73
2023/03/17 09:47:34;;;;;;;10.53;6.17;;;13.30;55.30;;;;;;5026417;28;20526;-74
2023/03/17 09:50:03;;;;;;;11.60;6.30;;;13.40;55.30;;;;;;5038092;28;20471;-73
2023/03/17 09:52:31;;;;;;;9.53;5.37;;;13.60;54.40;;;;;;5030060;28;20420;-74
2023/03/17 09:54:57;;;;;;;12.83;5.40;;;13.70;53.70;;;;;;5050549;28;20468;-77
2023/03/17 09:57:31;;;;;;;11.43;5.60;;;13.80;52.80;;;;;;5048554;28;20420;-74
2023/03/17 10:00:06;;;;;;;9.63;5.50;;;13.90;52.80;;;;;;5036479;28;20556;-74
2023/03/17 10:02:34;;;;;;;8.00;4.70;;;14.10;52.80;;;;;;5046135;28;20426;-74
2023/03/17 10:05:35;;;;;;;9.60;5.60;;;14.20;50.70;;;;;;5046885;28;20914;-75
2023/03/17 10:08:21;;;;;;;10.97;6.07;;;14.30;51.80;;;;;;4970548;28;20433;-74
2023/03/17 10:10:54;;;;;;;11.83;6.10;;;14.30;51.80;;;;;;4967659;28;20479;-74
2023/03/17 10:13:47;;;;;;;11.13;5.57;;;14.40;51.40;;;;;;4971315;28;20486;-75
2023/03/17 10:16:17;;;;;;;12.10;5.73;;;14.40;51.40;;;;;;4954674;28;20428;-72
2023/03/17 10:18:55;;;;;;;10.03;5.73;;;14.60;52.00;;;;;;4969671;28;20444;-74
2023/03/17 10:21:40;;;;;;;9.53;5.07;;;14.80;51.70;;;;;;4967717;28;20555;-74
2023/03/17 10:24:08;;;;;;;8.30;5.00;;;14.90;51.60;;;;;;4970598;28;20434;-75
2023/03/17 10:26:44;;;;;;;9.00;5.33;;;15.10;50.50;;;;;;4970270;28;20519;-73
2023/03/17 10:29:22;;;;;;;8.10;4.80;;;15.30;49.90;;;;;;4967673;28;20427;-71
2023/03/17 10:31:50;;;;;;;9.23;5.73;;;15.60;49.40;;;;;;4969294;28;20433;-75
2023/03/17 10:34:38;;;;;;;9.23;5.83;;;15.90;49.10;;;;;;4955142;28;21379;-74
2023/03/17 10:37:12;;;;;;;12.90;5.53;;;16.10;48.30;;;;;;4943868;28;20441;-75
2023/03/17 10:39:47;;;;;;;9.20;5.27;;;16.20;48.60;;;;;;4965309;28;20530;-75
2023/03/17 10:42:27;;;;;;;9.43;5.80;;;16.40;48.30;;;;;;4970536;28;20430;-74
2023/03/17 10:45:12;;;;;;;9.20;4.80;;;16.60;47.50;;;;;;5015449;28;20441;-75
2023/03/17 10:47:39;;;;;;;9.20;4.63;;;16.80;47.10;;;;;;5045061;28;20423;-73
2023/03/17 10:50:33;;;;;;;7.33;4.67;;;17.20;46.30;;;;;;5043649;28;20464;-73
2023/03/17 10:53:03;;;;;;;12.17;4.40;;;17.50;45.90;;;;;;5039583;28;20497;-74
2023/03/17 10:55:50;;;;;;;10.70;4.13;;;17.90;44.50;;;;;;5044300;28;20877;-75
2023/03/17 10:58:24;;;;;;;8.80;5.00;;;18.40;43.80;;;;;;5044556;28;20486;-75
2023/03/17 11:01:19;;;;;;;12.30;5.60;;;18.80;43.00;;;;;;5041112;28;20470;-74
2023/03/17 11:03:46;;;;;;;6.83;4.50;;;19.40;41.90;;;;;;5005630;28;20941;-76
2023/03/17 11:06:21;;;;;;;11.20;4.70;;;19.80;40.30;;;;;;5032564;28;20465;-75
2023/03/17 11:08:52;;;;;;;13.33;4.73;;;19.90;39.80;;;;;;5049342;28;20428;-74
2023/03/17 11:11:29;;;;;;;8.00;5.07;;;19.80;39.10;;;;;;5041462;28;20929;-73
2023/03/17 11:14:11;;;;;;;12.30;4.30;;;19.40;39.60;;;;;;5049936;28;20480;-73
2023/03/17 11:16:45;;;;;;;5.73;3.87;;;19.00;39.60;;;;;;5041649;28;20512;-73
2023/03/17 11:19:14;;;;;;;10.43;4.60;;;18.60;41.00;;;;;;5046207;28;20464;-72
2023/03/17 11:22:18;;;;;;;7.03;4.50;;;18.60;41.50;;;;;;5044551;28;20545;-75
2023/03/17 11:25:13;;;;;;;10.00;4.07;;;18.70;41.60;;;;;;5029770;28;20444;-74
2023/03/17 11:28:14;;;;;;;6.80;4.73;;;18.90;41.60;;;;;;5038614;28;20434;-74
2023/03/17 11:30:56;;;;;;;8.10;3.80;;;19.00;41.40;;;;;;5046894;28;20958;-74
2023/03/17 11:33:39;;;;;;;7.00;3.50;;;19.10;41.00;;;;;;5043824;28;20473;-74
2023/03/17 11:36:25;;;;;;;8.80;3.47;;;19.30;40.40;;;;;;5049655;28;20492;-75
2023/03/17 11:39:11;;;;;;;9.67;4.03;;;19.30;40.20;;;;;;5048479;28;20449;-74
2023/03/17 11:41:43;;;;;;;6.97;3.87;;;19.50;40.70;;;;;;5053454;28;20434;-75
2023/03/17 11:44:35;;;;;;;6.30;3.80;;;19.70;40.00;;;;;;5055776;28;20423;-74
2023/03/17 11:47:15;;;;;;;5.77;3.03;;;19.90;39.90;;;;;;5048718;28;20436;-73
2023/03/17 11:49:44;;;;;;;9.10;3.63;;;20.10;39.40;;;;;;5043171;28;20477;-75
2023/03/17 11:52:16;;;;;;;8.80;3.90;;;20.50;39.00;;;;;;5052014;28;20428;-72
2023/03/17 11:54:44;;;;;;;7.40;3.30;;;20.90;37.90;;;;;;5053508;28;20468;-73
2023/03/17 11:57:27;;;;;;;5.73;3.27;;;21.20;37.60;;;;;;5032254;28;20441;-72
2023/03/17 12:00:02;;;;;;;6.20;3.40;;;21.60;36.70;;;;;;5029248;28;21021;-73
2023/03/17 12:02:41;;;;;;;6.40;3.10;;;21.90;36.20;;;;;;5049631;28;20452;-76
2023/03/17 12:05:12;;;;;;;5.77;3.37;;;22.20;35.50;;;;;;5048934;28;20777;-73
2023/03/17 12:07:52;;;;;;;5.77;3.37;;;22.60;34.80;;;;;;5043036;28;20449;-73
2023/03/17 12:10:36;;;;;;;8.83;3.70;;;22.70;33.30;;;;;;5044035;28;21049;-73
2023/03/17 12:13:11;;;;;;;16.17;4.73;;;22.60;33.50;;;;;;5047754;28;20834;-73
2023/03/17 12:15:42;;;;;;;7.17;3.67;;;22.20;33.60;;;;;;5048893;28;20921;-73
2023/03/17 12:18:47;;;;;;;6.60;3.83;;;21.90;34.80;;;;;;5044573;28;20486;-73
2023/03/17 12:21:33;;;;;;;8.73;4.37;;;22.00;34.40;;;;;;4980739;28;20465;-73
2023/03/17 12:24:17;;;;;;;5.37;3.43;;;22.20;35.10;;;;;;4969406;28;20438;-73
2023/03/17 12:26:51;;;;;;;6.57;4.03;;;22.10;34.50;;;;;;4981345;28;20606;-72
2023/03/17 12:29:41;;;;;;;7.80;4.30;;;22.00;34.50;;;;;;4985254;28;20437;-73
2023/03/17 12:32:17;;;;;;;17.30;4.30;;;21.80;34.50;;;;;;4983010;28;20434;-73
2023/03/17 12:34:56;;;;;;;4.73;2.70;;;21.60;34.50;;;;;;4981701;28;20568;-73
2023/03/17 12:37:23;;;;;;;5.33;2.83;;;21.60;33.60;;;;;;4986218;28;20448;-72
2023/03/17 12:39:55;;;;;;;4.47;2.63;;;21.70;34.10;;;;;;4982758;28;20931;-71
2023/03/17 12:42:20;;;;;;;8.00;2.90;;;21.70;34.40;;;;;;4987234;28;20492;-71
2023/03/17 12:44:49;;;;;;;9.23;3.20;;;21.60;34.50;;;;;;4985296;28;20440;-74
2023/03/17 12:47:52;;;;;;;5.67;3.37;;;21.60;35.30;;;;;;4988834;28;20206;-73
2023/03/17 12:50:26;;;;;;;4.40;2.17;;;21.30;34.90;;;;;;4985359;28;20480;-72
2023/03/17 12:52:55;;;;;;;6.10;3.27;;;21.10;34.90;;;;;;4989437;28;20994;-72
2023/03/17 12:55:25;;;;;;;4.50;2.77;;;21.20;35.20;;;;;;4988776;28;20439;-73
2023/03/17 12:58:29;;;;;;;6.50;3.00;;;21.20;34.50;;;;;;5047986;28;20437;-72
2023/03/17 13:01:12;;;;;;;4.00;2.27;;;20.90;34.70;;;;;;5046606;28;20866;-72
2023/03/17 13:03:54;;;;;;;6.43;2.60;;;20.60;34.80;;;;;;5047952;28;20453;-73